Time;durP1;ratioP1;P1;durP2;ratioP2;P2;SDS_P1;SDS_P2;PMS_P1;PMS_P2;Temp;Humidity;BMP_temperature;BMP_pressure;BME280_temperature;BME280_humidity;BME280_pressure;Samples;Min_cycle;Max_cycle;Signal;HPM_P1;HPM_P2
2024/01/19 00:00:42;;;;;;;;;;;;;;;;;;5135427;27;19924;-42
2024/01/19 00:03:08;;;;;;;;;;;;;;;;;;5135535;27;19931;-43
2024/01/19 00:05:35;;;;;;;;;;;;;;;;;;5135448;27;19924;-43
2024/01/19 00:08:02;;;;;;;;;;;;;;;;;;5135404;27;19928;-43
2024/01/19 00:10:30;;;;;;;;;;;;;;;;;;5135263;27;20340;-41
2024/01/19 00:12:56;;;;;;;;;;;;;;;;;;5135063;27;19924;-44
2024/01/19 00:15:23;;;;;;;;;;;;;;;;;;5135130;27;19930;-42
2024/01/19 00:17:57;;;;;;;;;;;;;;;;;;5135000;27;19962;-42
2024/01/19 00:20:23;;;;;;;;;;;;;;;;;;5135086;27;20393;-42
2024/01/19 00:22:50;;;;;;;;;;;;;;;;;;5134990;27;19927;-43
2024/01/19 00:25:16;;;;;;;;;;;;;;;;;;5135012;27;19923;-42
2024/01/19 00:27:42;;;;;;;;;;;;;;;;;;5134968;27;20351;-44
2024/01/19 00:30:08;;;;;;;;;;;;;;;;;;5134887;27;20420;-42
2024/01/19 00:32:35;;;;;;;;;;;;;;;;;;5134935;27;20355;-42
2024/01/19 00:35:01;;;;;;;;;;;;;;;;;;5134859;27;19927;-44
2024/01/19 00:37:27;;;;;;;;;;;;;;;;;;5134930;27;19934;-43
2024/01/19 00:39:53;;;;;;;;;;;;;;;;;;5134757;27;20136;-43
2024/01/19 00:42:19;;;;;;;;;;;;;;;;;;5134702;27;19976;-42
2024/01/19 00:44:45;;;;;;;;;;;;;;;;;;5134674;27;19927;-43
2024/01/19 00:47:11;;;;;;;;;;;;;;;;;;5134618;27;19931;-45
2024/01/19 00:49:38;;;;;;;;;;;;;;;;;;5134541;27;19923;-42
2024/01/19 00:52:04;;;;;;;;;;;;;;;;;;5134498;27;19927;-42
2024/01/19 00:54:30;;;;;;;;;;;;;;;;;;5134494;27;19924;-44
2024/01/19 00:56:56;;;;;;;;;;;;;;;;;;5134579;27;19927;-42
2024/01/19 00:59:22;;;;;;;;;;;;;;;;;;5134366;27;20317;-42
2024/01/19 01:01:48;;;;;;;;;;;;;;;;;;5133999;27;19924;-47
2024/01/19 01:04:14;;;;;;;;;;;;;;;;;;5134526;27;19923;-42
2024/01/19 01:06:41;;;;;;;;;;;;;;;;;;5134429;27;19923;-43
2024/01/19 01:09:07;;;;;;;;;;;;;;;;;;5134373;27;20383;-44
2024/01/19 01:11:33;;;;;;;;;;;;;;;;;;5133808;27;19928;-43
2024/01/19 01:13:59;;;;;;;;;;;;;;;;;;5134186;27;19924;-42
2024/01/19 01:16:26;;;;;;;;;;;;;;;;;;5134114;28;19923;-42
2024/01/19 01:18:52;;;;;;;;;;;;;;;;;;5134197;28;19974;-43
2024/01/19 01:21:18;;;;;;;;;;;;;;;;;;5134191;28;19923;-42
2024/01/19 01:23:44;;;;;;;;;;;;;;;;;;5134144;28;20359;-42
2024/01/19 01:26:11;;;;;;;;;;;;;;;;;;5133906;28;19923;-43
2024/01/19 01:28:37;;;;;;;;;;;;;;;;;;5134122;27;19923;-42
2024/01/19 01:31:03;;;;;;;;;;;;;;;;;;5138131;27;19976;-44
2024/01/19 01:33:29;;;;;;;;;;;;;;;;;;5138544;27;19969;-43
2024/01/19 01:35:56;;;;;;;;;;;;;;;;;;5138559;27;20354;-43
2024/01/19 01:38:22;;;;;;;;;;;;;;;;;;5138322;27;20351;-42
2024/01/19 01:40:48;;;;;;;;;;;;;;;;;;5138165;27;19924;-42
2024/01/19 01:43:14;;;;;;;;;;;;;;;;;;5137965;27;19996;-42
2024/01/19 01:45:40;;;;;;;;;;;;;;;;;;5138194;27;19972;-43
2024/01/19 01:48:07;;;;;;;;;;;;;;;;;;5138039;27;19924;-44
2024/01/19 01:50:33;;;;;;;;;;;;;;;;;;5137790;27;20362;-44
2024/01/19 01:52:59;;;;;;;;;;;;;;;;;;5138037;27;19924;-42
2024/01/19 01:55:25;;;;;;;;;;;;;;;;;;5138075;27;19984;-44
2024/01/19 01:57:52;;;;;;;;;;;;;;;;;;5137991;27;19923;-43
2024/01/19 02:00:18;;;;;;;;;;;;;;;;;;5137858;27;19992;-42
2024/01/19 02:02:45;;;;;;;;;;;;;;;;;;5138033;27;19931;-43
2024/01/19 02:05:11;;;;;;;;;;;;;;;;;;5137851;27;19931;-44
2024/01/19 02:07:37;;;;;;;;;;;;;;;;;;5137704;27;19923;-43
2024/01/19 02:10:04;;;;;;;;;;;;;;;;;;5137486;27;19930;-44
2024/01/19 02:12:30;;;;;;;;;;;;;;;;;;5137521;27;19945;-42
2024/01/19 02:14:57;;;;;;;;;;;;;;;;;;5137477;27;20356;-43
2024/01/19 02:17:24;;;;;;;;;;;;;;;;;;5137464;27;19923;-42
2024/01/19 02:19:50;;;;;;;;;;;;;;;;;;5137169;27;20271;-43
2024/01/19 02:22:16;;;;;;;;;;;;;;;;;;5137463;27;20363;-43
2024/01/19 02:24:42;;;;;;;;;;;;;;;;;;5137395;27;19971;-42
2024/01/19 02:27:08;;;;;;;;;;;;;;;;;;5136978;27;19976;-44
2024/01/19 02:29:35;;;;;;;;;;;;;;;;;;5137346;27;19996;-44
2024/01/19 02:32:01;;;;;;;;;;;;;;;;;;5137258;27;20044;-42
2024/01/19 02:34:27;;;;;;;;;;;;;;;;;;5137336;27;19927;-42
2024/01/19 02:36:54;;;;;;;;;;;;;;;;;;5137044;27;19927;-41
2024/01/19 02:39:20;;;;;;;;;;;;;;;;;;5137050;27;19924;-41
2024/01/19 02:41:46;;;;;;;;;;;;;;;;;;5135534;27;19924;-42
2024/01/19 02:44:13;;;;;;;;;;;;;;;;;;5137029;27;20381;-42
2024/01/19 02:46:39;;;;;;;;;;;;;;;;;;5137070;27;19953;-42
2024/01/19 02:49:05;;;;;;;;;;;;;;;;;;5136894;27;20371;-43
2024/01/19 02:51:31;;;;;;;;;;;;;;;;;;5136442;27;19931;-44
2024/01/19 02:53:57;;;;;;;;;;;;;;;;;;5136820;27;19923;-41
2024/01/19 02:56:23;;;;;;;;;;;;;;;;;;5136743;27;19924;-42
2024/01/19 02:58:50;;;;;;;;;;;;;;;;;;5136906;27;19930;-43
2024/01/19 03:01:16;;;;;;;;;;;;;;;;;;5136658;27;19992;-44
2024/01/19 03:03:42;;;;;;;;;;;;;;;;;;5136732;27;19923;-44
2024/01/19 03:06:08;;;;;;;;;;;;;;;;;;5136588;27;19927;-43
2024/01/19 03:08:34;;;;;;;;;;;;;;;;;;5136381;27;19931;-43
2024/01/19 03:11:00;;;;;;;;;;;;;;;;;;5136338;27;19923;-44
2024/01/19 03:13:27;;;;;;;;;;;;;;;;;;5136465;27;19927;-43
2024/01/19 03:15:53;;;;;;;;;;;;;;;;;;5136374;27;19935;-42
2024/01/19 03:18:19;;;;;;;;;;;;;;;;;;5136321;27;19923;-43
2024/01/19 03:20:45;;;;;;;;;;;;;;;;;;5136195;27;19977;-42
2024/01/19 03:23:11;;;;;;;;;;;;;;;;;;5136159;27;19931;-42
2024/01/19 03:25:37;;;;;;;;;;;;;;;;;;5136277;27;20415;-41
2024/01/19 03:28:04;;;;;;;;;;;;;;;;;;5135915;27;19924;-42
2024/01/19 03:30:30;;;;;;;;;;;;;;;;;;5136137;27;19968;-43
2024/01/19 03:32:56;;;;;;;;;;;;;;;;;;5136183;27;19927;-42
2024/01/19 03:35:22;;;;;;;;;;;;;;;;;;5135913;27;19959;-42
2024/01/19 03:37:48;;;;;;;;;;;;;;;;;;5135490;27;20387;-43
2024/01/19 03:40:15;;;;;;;;;;;;;;;;;;5135901;27;19924;-42
2024/01/19 03:42:41;;;;;;;;;;;;;;;;;;5135763;27;19924;-43
2024/01/19 03:45:07;;;;;;;;;;;;;;;;;;5135746;27;19976;-42
2024/01/19 03:47:33;;;;;;;;;;;;;;;;;;5135819;27;19972;-43
2024/01/19 03:50:01;;;;;;;;;;;;;;;;;;5135736;27;19969;-43
2024/01/19 03:52:27;;;;;;;;;;;;;;;;;;5135101;27;19924;-43
2024/01/19 03:54:53;;;;;;;;;;;;;;;;;;5135735;27;19972;-41
2024/01/19 03:57:19;;;;;;;;;;;;;;;;;;5135464;27;19984;-42
2024/01/19 03:59:45;;;;;;;;;;;;;;;;;;5135599;27;19927;-43
2024/01/19 04:02:12;;;;;;;;;;;;;;;;;;5135582;27;19950;-42
2024/01/19 04:04:38;;;;;;;;;;;;;;;;;;5135490;27;19927;-42
2024/01/19 04:07:04;;;;;;;;;;;;;;;;;;5134936;27;20302;-43
2024/01/19 04:09:30;;;;;;;;;;;;;;;;;;5135342;27;19930;-44
2024/01/19 04:11:56;;;;;;;;;;;;;;;;;;5135267;27;20359;-43
2024/01/19 04:14:23;;;;;;;;;;;;;;;;;;5135189;27;19977;-43
2024/01/19 04:16:49;;;;;;;;;;;;;;;;;;5135171;27;19923;-43
2024/01/19 04:19:15;;;;;;;;;;;;;;;;;;5135203;27;19969;-44
2024/01/19 04:21:41;;;;;;;;;;;;;;;;;;5134962;27;20275;-42
2024/01/19 04:24:08;;;;;;;;;;;;;;;;;;5135251;27;19923;-42
2024/01/19 04:26:36;;;;;;;;;;;;;;;;;;5135008;27;20013;-44
2024/01/19 04:29:02;;;;;;;;;;;;;;;;;;5135057;27;20356;-43
2024/01/19 04:31:28;;;;;;;;;;;;;;;;;;5135019;27;20411;-42
2024/01/19 04:33:54;;;;;;;;;;;;;;;;;;5134946;27;20412;-41
2024/01/19 04:36:23;;;;;;;;;;;;;;;;;;5134639;27;19947;-45
2024/01/19 04:38:51;;;;;;;;;;;;;;;;;;5134743;27;19976;-43
2024/01/19 04:41:18;;;;;;;;;;;;;;;;;;5134649;27;19923;-44
2024/01/19 04:43:44;;;;;;;;;;;;;;;;;;5134645;27;19923;-43
2024/01/19 04:46:10;;;;;;;;;;;;;;;;;;5134758;27;20367;-43
2024/01/19 04:48:36;;;;;;;;;;;;;;;;;;5134702;27;19967;-43
2024/01/19 04:51:03;;;;;;;;;;;;;;;;;;5134576;27;19957;-46
2024/01/19 04:53:29;;;;;;;;;;;;;;;;;;5134215;27;20403;-42
2024/01/19 04:55:56;;;;;;;;;;;;;;;;;;5134673;27;19923;-42
2024/01/19 04:58:22;;;;;;;;;;;;;;;;;;5134688;27;19927;-42
2024/01/19 05:00:48;;;;;;;;;;;;;;;;;;5134654;27;19975;-42
2024/01/19 05:03:15;;;;;;;;;;;;;;;;;;5134278;27;19953;-42
2024/01/19 05:05:41;;;;;;;;;;;;;;;;;;5133708;27;19927;-42
2024/01/19 05:08:07;;;;;;;;;;;;;;;;;;5134333;27;19929;-42
2024/01/19 05:10:34;;;;;;;;;;;;;;;;;;5134293;27;19923;-41
2024/01/19 05:13:00;;;;;;;;;;;;;;;;;;5134047;27;20427;-43
2024/01/19 05:15:27;;;;;;;;;;;;;;;;;;5134424;27;19928;-42
2024/01/19 05:17:53;;;;;;;;;;;;;;;;;;5133968;27;19972;-43
2024/01/19 05:20:19;;;;;;;;;;;;;;;;;;5134216;28;20022;-43
2024/01/19 05:22:45;;;;;;;;;;;;;;;;;;5134010;28;19924;-41
2024/01/19 05:25:11;;;;;;;;;;;;;;;;;;5134201;28;19972;-44
2024/01/19 05:27:38;;;;;;;;;;;;;;;;;;5134315;28;19968;-41
2024/01/19 05:30:04;;;;;;;;;;;;;;;;;;5134175;28;19968;-45
2024/01/19 05:32:30;;;;;;;;;;;;;;;;;;5134278;28;19927;-42
2024/01/19 05:34:56;;;;;;;;;;;;;;;;;;5133899;28;19973;-44
2024/01/19 05:37:22;;;;;;;;;;;;;;;;;;5134221;27;19923;-42
2024/01/19 05:39:49;;;;;;;;;;;;;;;;;;5133794;28;19924;-45
2024/01/19 05:42:15;;;;;;;;;;;;;;;;;;5133839;28;19924;-45
2024/01/19 05:44:41;;;;;;;;;;;;;;;;;;5133797;28;19927;-43
2024/01/19 05:47:09;;;;;;;;;;;;;;;;;;5132808;28;21205;-42
2024/01/19 05:49:35;;;;;;;;;;;;;;;;;;5133715;28;19945;-42
2024/01/19 05:52:01;;;;;;;;;;;;;;;;;;5133882;28;19923;-43
2024/01/19 05:54:27;;;;;;;;;;;;;;;;;;5133491;28;19927;-42
2024/01/19 05:56:54;;;;;;;;;;;;;;;;;;5134038;28;19927;-42
2024/01/19 05:59:20;;;;;;;;;;;;;;;;;;5120016;28;19971;-42
2024/01/19 06:01:46;;;;;;;;;;;;;;;;;;5129140;28;19968;-41
2024/01/19 06:04:12;;;;;;;;;;;;;;;;;;5127609;28;19927;-43
2024/01/19 06:06:38;;;;;;;;;;;;;;;;;;5127869;28;19931;-42
2024/01/19 06:09:05;;;;;;;;;;;;;;;;;;5117470;28;19977;-44
2024/01/19 06:11:31;;;;;;;;;;;;;;;;;;5128943;28;20337;-42
2024/01/19 06:13:57;;;;;;;;;;;;;;;;;;5117908;28;19923;-42
2024/01/19 06:16:23;;;;;;;;;;;;;;;;;;5133650;27;19980;-43
2024/01/19 06:18:49;;;;;;;;;;;;;;;;;;5123035;27;19969;-43
2024/01/19 06:21:15;;;;;;;;;;;;;;;;;;5128070;27;19934;-42
2024/01/19 06:23:42;;;;;;;;;;;;;;;;;;5121353;27;19924;-45
2024/01/19 06:26:08;;;;;;;;;;;;;;;;;;5130609;27;19927;-43
2024/01/19 06:28:34;;;;;;;;;;;;;;;;;;5136655;27;19923;-43
2024/01/19 06:31:00;;;;;;;;;;;;;;;;;;5122855;27;19951;-42
2024/01/19 06:33:26;;;;;;;;;;;;;;;;;;5118286;27;19928;-41
2024/01/19 06:35:52;;;;;;;;;;;;;;;;;;5132472;27;20260;-45
2024/01/19 06:38:20;;;;;;;;;;;;;;;;;;5134414;27;20026;-43
2024/01/19 06:40:46;;;;;;;;;;;;;;;;;;5131430;27;19946;-42
2024/01/19 06:43:12;;;;;;;;;;;;;;;;;;5133189;27;20363;-43
2024/01/19 06:45:38;;;;;;;;;;;;;;;;;;5128773;27;20269;-45
2024/01/19 06:48:05;;;;;;;;;;;;;;;;;;5127044;27;19927;-43
2024/01/19 06:50:31;;;;;;;;;;;;;;;;;;5129508;27;20385;-44
2024/01/19 06:52:59;;;;;;;;;;;;;;;;;;5127975;27;19991;-42
2024/01/19 06:55:25;;;;;;;;;;;;;;;;;;5117832;27;19924;-45
2024/01/19 06:57:52;;;;;;;;;;;;;;;;;;5128200;27;20470;-46
2024/01/19 07:00:18;;;;;;;;;;;;;;;;;;5122524;27;20202;-42
2024/01/19 07:02:44;;;;;;;;;;;;;;;;;;5126975;27;19924;-42
2024/01/19 07:05:11;;;;;;;;;;;;;;;;;;5131539;27;19931;-45
2024/01/19 07:07:37;;;;;;;;;;;;;;;;;;5125825;27;19988;-43
2024/01/19 07:10:04;;;;;;;;;;;;;;;;;;5119842;27;19924;-43
2024/01/19 07:12:30;;;;;;;;;;;;;;;;;;5121488;27;19968;-42
2024/01/19 07:14:57;;;;;;;;;;;;;;;;;;5129836;27;19992;-45
2024/01/19 07:17:23;;;;;;;;;;;;;;;;;;5128712;27;19924;-42
2024/01/19 07:19:49;;;;;;;;;;;;;;;;;;5132036;27;19935;-46
2024/01/19 07:22:16;;;;;;;;;;;;;;;;;;5132470;27;19951;-47
2024/01/19 07:24:42;;;;;;;;;;;;;;;;;;5127601;27;19977;-45
2024/01/19 07:27:08;;;;;;;;;;;;;;;;;;5125218;27;19953;-47
2024/01/19 07:29:34;;;;;;;;;;;;;;;;;;5128012;27;20391;-43
2024/01/19 07:32:00;;;;;;;;;;;;;;;;;;5120408;27;19928;-47
2024/01/19 07:34:27;;;;;;;;;;;;;;;;;;5125118;27;20330;-45
2024/01/19 07:36:53;;;;;;;;;;;;;;;;;;5118717;27;20371;-46
2024/01/19 07:39:23;;;;;;;;;;;;;;;;;;5129301;27;19976;-45
2024/01/19 07:41:49;;;;;;;;;;;;;;;;;;5124068;27;19931;-47
2024/01/19 07:44:16;;;;;;;;;;;;;;;;;;5128964;27;19927;-44
2024/01/19 07:46:42;;;;;;;;;;;;;;;;;;5126408;27;19980;-46
2024/01/19 07:49:08;;;;;;;;;;;;;;;;;;5119220;27;19931;-45
2024/01/19 07:51:34;;;;;;;;;;;;;;;;;;5122665;27;19946;-44
2024/01/19 07:54:01;;;;;;;;;;;;;;;;;;5120301;27;19966;-45
2024/01/19 07:56:27;;;;;;;;;;;;;;;;;;5116817;27;19939;-44
2024/01/19 07:58:53;;;;;;;;;;;;;;;;;;5117084;27;20055;-44
2024/01/19 08:01:19;;;;;;;;;;;;;;;;;;5055357;28;19932;-42
2024/01/19 08:03:45;;;;;;;;;;;;;;;;;;5058282;28;19935;-42
2024/01/19 08:06:11;;;;;;;;;;;;;;;;;;5061381;28;20345;-43
2024/01/19 08:08:38;;;;;;;;;;;;;;;;;;5056219;28;19943;-44
2024/01/19 08:11:04;;;;;;;;;;;;;;;;;;5057364;28;20022;-44
2024/01/19 08:13:30;;;;;;;;;;;;;;;;;;5060612;28;19939;-44
2024/01/19 08:15:56;;;;;;;;;;;;;;;;;;5059775;28;19994;-43
2024/01/19 08:18:23;;;;;;;;;;;;;;;;;;5055440;28;19932;-44
2024/01/19 08:20:49;;;;;;;;;;;;;;;;;;5119869;27;19931;-42
2024/01/19 08:23:15;;;;;;;;;;;;;;;;;;5125501;27;19928;-43
2024/01/19 08:25:41;;;;;;;;;;;;;;;;;;5112723;27;19956;-45
2024/01/19 08:28:08;;;;;;;;;;;;;;;;;;5122396;27;19962;-42
2024/01/19 08:30:34;;;;;;;;;;;;;;;;;;5123809;27;19928;-42
2024/01/19 08:33:01;;;;;;;;;;;;;;;;;;5124305;27;19984;-44
2024/01/19 08:35:27;;;;;;;;;;;;;;;;;;5123748;27;19928;-41
2024/01/19 08:37:53;;;;;;;;;;;;;;;;;;5130443;27;20018;-44
2024/01/19 08:40:20;;;;;;;;;;;;;;;;;;5127935;27;20284;-42
2024/01/19 08:42:46;;;;;;;;;;;;;;;;;;5127800;27;20176;-43
2024/01/19 08:45:12;;;;;;;;;;;;;;;;;;5128337;27;19962;-42
2024/01/19 08:47:38;;;;;;;;;;;;;;;;;;5125087;27;19959;-42
2024/01/19 08:50:05;;;;;;;;;;;;;;;;;;5125504;27;20014;-41
2024/01/19 08:52:32;;;;;;;;;;;;;;;;;;5120300;27;19973;-42
2024/01/19 08:54:58;;;;;;;;;;;;;;;;;;5126367;27;19923;-43
2024/01/19 08:57:24;;;;;;;;;;;;;;;;;;5126369;27;20366;-42
2024/01/19 08:59:51;;;;;;;;;;;;;;;;;;5123879;27;19931;-42
2024/01/19 09:02:17;;;;;;;;;;;;;;;;;;5117450;27;20505;-43
2024/01/19 09:04:43;;;;;;;;;;;;;;;;;;5126580;27;19931;-45
2024/01/19 09:07:10;;;;;;;;;;;;;;;;;;5118040;27;20726;-41
2024/01/19 09:09:37;;;;;;;;;;;;;;;;;;5118670;27;20024;-44
2024/01/19 09:12:03;;;;;;;;;;;;;;;;;;5122785;27;19932;-44
2024/01/19 09:14:29;;;;;;;;;;;;;;;;;;5118719;27;20476;-43
2024/01/19 09:16:56;;;;;;;;;;;;;;;;;;5121933;27;20343;-46
2024/01/19 09:19:22;;;;;;;;;;;;;;;;;;5128763;28;19949;-44
2024/01/19 09:21:50;;;;;;;;;;;;;;;;;;5041945;28;20433;-42
2024/01/19 09:24:16;;;;;;;;;;;;;;;;;;4962151;28;19938;-43
2024/01/19 09:26:43;;;;;;;;;;;;;;;;;;4962110;28;20390;-45
2024/01/19 09:29:10;;;;;;;;;;;;;;;;;;4961570;28;19926;-43
2024/01/19 09:31:36;;;;;;;;;;;;;;;;;;4962985;28;19934;-42
2024/01/19 09:34:02;;;;;;;;;;;;;;;;;;4960524;28;20397;-46
2024/01/19 09:36:28;;;;;;;;;;;;;;;;;;4962201;28;20509;-42
2024/01/19 09:38:54;;;;;;;;;;;;;;;;;;4925209;28;19935;-45
2024/01/19 09:41:21;;;;;;;;;;;;;;;;;;5001138;28;20057;-43
2024/01/19 09:43:47;;;;;;;;;;;;;;;;;;5057052;28;19982;-41
2024/01/19 09:46:13;;;;;;;;;;;;;;;;;;5055440;28;19946;-42
2024/01/19 09:48:39;;;;;;;;;;;;;;;;;;5055892;28;19932;-42
2024/01/19 09:51:05;;;;;;;;;;;;;;;;;;5060630;28;19925;-41
2024/01/19 09:53:32;;;;;;;;;;;;;;;;;;5066051;28;19925;-42
2024/01/19 09:55:59;;;;;;;;;;;;;;;;;;5060129;27;20373;-43
2024/01/19 09:58:26;;;;;;;;;;;;;;;;;;5128818;27;19931;-43
2024/01/19 10:00:52;;;;;;;;;;;;;;;;;;5126996;27;20463;-42
2024/01/19 10:03:19;;;;;;;;;;;;;;;;;;5130336;27;19938;-43
2024/01/19 10:05:45;;;;;;;;;;;;;;;;;;5129482;27;19943;-44
2024/01/19 10:08:11;;;;;;;;;;;;;;;;;;5125044;27;20054;-45
2024/01/19 10:10:38;;;;;;;;;;;;;;;;;;5129545;27;19935;-42
2024/01/19 10:13:04;;;;;;;;;;;;;;;;;;5124511;27;20212;-42
2024/01/19 10:15:32;;;;;;;;;;;;;;;;;;5127365;27;19932;-43
2024/01/19 10:17:58;;;;;;;;;;;;;;;;;;5129646;27;19963;-42
2024/01/19 10:20:24;;;;;;;;;;;;;;;;;;5125217;27;19928;-42
2024/01/19 10:22:50;;;;;;;;;;;;;;;;;;5132121;27;19927;-42
2024/01/19 10:25:17;;;;;;;;;;;;;;;;;;5127511;27;19924;-44
2024/01/19 10:27:44;;;;;;;;;;;;;;;;;;5121625;27;20011;-41
2024/01/19 10:30:11;;;;;;;;;;;;;;;;;;5123073;27;20274;-42
2024/01/19 10:32:37;;;;;;;;;;;;;;;;;;5124211;27;19927;-41
2024/01/19 10:35:04;;;;;;;;;;;;;;;;;;5123779;27;19924;-42
2024/01/19 10:37:30;;;;;;;;;;;;;;;;;;5119623;27;19984;-44
2024/01/19 10:39:56;;;;;;;;;;;;;;;;;;5117077;27;19980;-45
2024/01/19 10:42:22;;;;;;;;;;;;;;;;;;5117661;27;19932;-41
2024/01/19 10:44:49;;;;;;;;;;;;;;;;;;5110964;27;20067;-43
2024/01/19 10:47:15;;;;;;;;;;;;;;;;;;5121418;27;20000;-41
2024/01/19 10:49:41;;;;;;;;;;;;;;;;;;5112647;27;20016;-41
2024/01/19 10:52:07;;;;;;;;;;;;;;;;;;5111248;27;19930;-44
2024/01/19 10:54:33;;;;;;;;;;;;;;;;;;5116840;27;19931;-45
2024/01/19 10:57:00;;;;;;;;;;;;;;;;;;5114412;27;20255;-43
2024/01/19 10:59:26;;;;;;;;;;;;;;;;;;5104876;27;19931;-43
2024/01/19 11:01:52;;;;;;;;;;;;;;;;;;5113120;27;20336;-41
2024/01/19 11:04:18;;;;;;;;;;;;;;;;;;5115904;27;20481;-43
2024/01/19 11:06:45;;;;;;;;;;;;;;;;;;5117636;27;20027;-41
2024/01/19 11:09:11;;;;;;;;;;;;;;;;;;5116114;27;19934;-43
2024/01/19 11:11:37;;;;;;;;;;;;;;;;;;5114997;27;19935;-41
2024/01/19 11:14:03;;;;;;;;;;;;;;;;;;5116906;27;19932;-43
2024/01/19 11:16:30;;;;;;;;;;;;;;;;;;5116672;27;19931;-41
2024/01/19 11:18:56;;;;;;;;;;;;;;;;;;5113201;27;20022;-42
2024/01/19 11:21:24;;;;;;;;;;;;;;;;;;5114864;27;19936;-44
2024/01/19 11:23:50;;;;;;;;;;;;;;;;;;5115902;27;20043;-45
2024/01/19 11:26:16;;;;;;;;;;;;;;;;;;5114877;27;19964;-43
2024/01/19 11:28:42;;;;;;;;;;;;;;;;;;5117389;27;20024;-44
2024/01/19 11:31:10;;;;;;;;;;;;;;;;;;5116256;27;20100;-45
2024/01/19 11:33:36;;;;;;;;;;;;;;;;;;5117289;27;19927;-44
2024/01/19 11:36:03;;;;;;;;;;;;;;;;;;5125327;27;20022;-43
2024/01/19 11:38:30;;;;;;;;;;;;;;;;;;5124960;27;19947;-43
2024/01/19 11:40:56;;;;;;;;;;;;;;;;;;5123728;27;19924;-43
2024/01/19 11:43:23;;;;;;;;;;;;;;;;;;5125156;27;19932;-43
2024/01/19 11:45:49;;;;;;;;;;;;;;;;;;5123414;27;20020;-43
2024/01/19 11:48:15;;;;;;;;;;;;;;;;;;5130877;27;19976;-41
2024/01/19 11:50:42;;;;;;;;;;;;;;;;;;5121885;27;19987;-41
2024/01/19 11:53:08;;;;;;;;;;;;;;;;;;5116402;27;19935;-42
2024/01/19 11:55:35;;;;;;;;;;;;;;;;;;5117202;27;19963;-43
2024/01/19 11:58:01;;;;;;;;;;;;;;;;;;5117832;27;19980;-42
2024/01/19 12:00:29;;;;;;;;;;;;;;;;;;5114308;27;19932;-44
2024/01/19 12:02:55;;;;;;;;;;;;;;;;;;5114280;27;19964;-46
2024/01/19 12:05:21;;;;;;;;;;;;;;;;;;5115654;27;19924;-42
2024/01/19 12:07:47;;;;;;;;;;;;;;;;;;5114678;27;19938;-42
2024/01/19 12:10:15;;;;;;;;;;;;;;;;;;5117759;27;19973;-43
2024/01/19 12:12:41;;;;;;;;;;;;;;;;;;5117130;27;19928;-45
2024/01/19 12:15:07;;;;;;;;;;;;;;;;;;5116696;27;20000;-41
2024/01/19 12:17:34;;;;;;;;;;;;;;;;;;5120584;27;19923;-41
2024/01/19 12:20:02;;;;;;;;;;;;;;;;;;5131755;27;20375;-41
2024/01/19 12:22:29;;;;;;;;;;;;;;;;;;5128761;27;20382;-42
2024/01/19 12:24:55;;;;;;;;;;;;;;;;;;5126411;27;19928;-42
2024/01/19 12:27:21;;;;;;;;;;;;;;;;;;5130993;27;19953;-41
2024/01/19 12:29:47;;;;;;;;;;;;;;;;;;5118786;27;19979;-41
2024/01/19 12:32:13;;;;;;;;;;;;;;;;;;5123238;27;20008;-42
2024/01/19 12:34:39;;;;;;;;;;;;;;;;;;5126917;27;19930;-45
2024/01/19 12:37:06;;;;;;;;;;;;;;;;;;5125160;27;19972;-42
2024/01/19 12:39:32;;;;;;;;;;;;;;;;;;5131642;27;19978;-41
2024/01/19 12:41:59;;;;;;;;;;;;;;;;;;5126988;27;19935;-45
2024/01/19 12:44:25;;;;;;;;;;;;;;;;;;5127743;27;19927;-43
2024/01/19 12:46:52;;;;;;;;;;;;;;;;;;5130124;27;19976;-42
2024/01/19 12:49:18;;;;;;;;;;;;;;;;;;5125450;27;19930;-44
2024/01/19 12:51:44;;;;;;;;;;;;;;;;;;5130860;27;19930;-43
2024/01/19 12:54:14;;;;;;;;;;;;;;;;;;5116656;27;19924;-45
2024/01/19 12:56:41;;;;;;;;;;;;;;;;;;5124393;27;20228;-44
2024/01/19 12:59:07;;;;;;;;;;;;;;;;;;5121859;27;19927;-56
2024/01/19 13:01:33;;;;;;;;;;;;;;;;;;5126215;27;20401;-44
2024/01/19 13:04:00;;;;;;;;;;;;;;;;;;5115774;27;19931;-52
2024/01/19 13:06:26;;;;;;;;;;;;;;;;;;5127402;27;19940;-54
2024/01/19 13:08:52;;;;;;;;;;;;;;;;;;5122636;27;19928;-42
2024/01/19 13:11:19;;;;;;;;;;;;;;;;;;5126666;27;19927;-43
2024/01/19 13:13:45;;;;;;;;;;;;;;;;;;5113090;27;19989;-42
2024/01/19 13:16:12;;;;;;;;;;;;;;;;;;5111760;28;19949;-43
2024/01/19 13:18:39;;;;;;;;;;;;;;;;;;5129235;27;19988;-42
2024/01/19 13:21:05;;;;;;;;;;;;;;;;;;5132906;27;19934;-42
2024/01/19 13:23:31;;;;;;;;;;;;;;;;;;5133112;28;20383;-42
2024/01/19 13:25:57;;;;;;;;;;;;;;;;;;5132766;27;20355;-42
2024/01/19 13:28:23;;;;;;;;;;;;;;;;;;5132596;28;20116;-42
2024/01/19 13:30:49;;;;;;;;;;;;;;;;;;5133271;28;19924;-42
2024/01/19 13:33:16;;;;;;;;;;;;;;;;;;5132975;28;19930;-41
2024/01/19 13:35:44;;;;;;;;;;;;;;;;;;5132753;28;19923;-44
2024/01/19 13:38:11;;;;;;;;;;;;;;;;;;5132554;28;19923;-42
2024/01/19 13:40:37;;;;;;;;;;;;;;;;;;5133285;28;19923;-42
2024/01/19 13:43:04;;;;;;;;;;;;;;;;;;5133374;28;19931;-42
2024/01/19 13:45:30;;;;;;;;;;;;;;;;;;5133354;28;19963;-41
2024/01/19 13:47:56;;;;;;;;;;;;;;;;;;5133013;28;19972;-45
2024/01/19 13:50:22;;;;;;;;;;;;;;;;;;5133406;28;19927;-41
2024/01/19 13:52:48;;;;;;;;;;;;;;;;;;5133074;28;20014;-44
2024/01/19 13:55:15;;;;;;;;;;;;;;;;;;5133512;28;19928;-42
2024/01/19 13:57:41;;;;;;;;;;;;;;;;;;5133308;28;19928;-42
2024/01/19 14:00:08;;;;;;;;;;;;;;;;;;5133240;28;19927;-44
2024/01/19 14:02:34;;;;;;;;;;;;;;;;;;5126039;28;20376;-42
2024/01/19 14:05:02;;;;;;;;;;;;;;;;;;5112752;28;19923;-42
2024/01/19 14:07:29;;;;;;;;;;;;;;;;;;5112609;28;19986;-42
2024/01/19 14:09:55;;;;;;;;;;;;;;;;;;5112557;28;19928;-42
2024/01/19 14:12:21;;;;;;;;;;;;;;;;;;5112982;28;19977;-42
2024/01/19 14:14:47;;;;;;;;;;;;;;;;;;5112392;28;19976;-42
2024/01/19 14:17:14;;;;;;;;;;;;;;;;;;5112650;28;19936;-42
2024/01/19 14:19:40;;;;;;;;;;;;;;;;;;5112878;28;19924;-41
2024/01/19 14:22:06;;;;;;;;;;;;;;;;;;5112570;28;19927;-43
2024/01/19 14:24:32;;;;;;;;;;;;;;;;;;5112765;28;19923;-42
2024/01/19 14:26:59;;;;;;;;;;;;;;;;;;5112597;28;19924;-42
2024/01/19 14:29:25;;;;;;;;;;;;;;;;;;5130843;28;20327;-41
2024/01/19 14:31:55;;;;;;;;;;;;;;;;;;5133253;28;20410;-44
2024/01/19 14:34:22;;;;;;;;;;;;;;;;;;5132778;28;20367;-43
2024/01/19 14:36:48;;;;;;;;;;;;;;;;;;5133389;27;19927;-40
2024/01/19 14:39:14;;;;;;;;;;;;;;;;;;5133752;27;20424;-40
2024/01/19 14:41:40;;;;;;;;;;;;;;;;;;5135173;27;19968;-40
2024/01/19 14:44:06;;;;;;;;;;;;;;;;;;5135076;27;19923;-42
2024/01/19 14:46:33;;;;;;;;;;;;;;;;;;5137003;27;19923;-40
2024/01/19 14:48:59;;;;;;;;;;;;;;;;;;5136834;27;19928;-40
2024/01/19 14:51:25;;;;;;;;;;;;;;;;;;5136853;27;19923;-40
2024/01/19 14:53:52;;;;;;;;;;;;;;;;;;5136639;27;19924;-40
2024/01/19 14:56:18;;;;;;;;;;;;;;;;;;5136861;27;19972;-40
2024/01/19 14:58:44;;;;;;;;;;;;;;;;;;5136641;27;19928;-40
2024/01/19 15:01:11;;;;;;;;;;;;;;;;;;5136707;27;19927;-40
2024/01/19 15:03:37;;;;;;;;;;;;;;;;;;5136751;27;19924;-42
2024/01/19 15:06:03;;;;;;;;;;;;;;;;;;5136683;27;19923;-42
2024/01/19 15:08:29;;;;;;;;;;;;;;;;;;5136279;27;19923;-40
2024/01/19 15:10:55;;;;;;;;;;;;;;;;;;5136698;27;19923;-41
2024/01/19 15:13:22;;;;;;;;;;;;;;;;;;5136080;27;20307;-39
2024/01/19 15:15:48;;;;;;;;;;;;;;;;;;5136484;27;19968;-39
2024/01/19 15:18:14;;;;;;;;;;;;;;;;;;5136366;27;19999;-40
2024/01/19 15:20:40;;;;;;;;;;;;;;;;;;5136270;27;19923;-39
2024/01/19 15:23:06;;;;;;;;;;;;;;;;;;5136257;27;19924;-39
2024/01/19 15:25:32;;;;;;;;;;;;;;;;;;5136342;27;19934;-39
2024/01/19 15:27:58;;;;;;;;;;;;;;;;;;5136309;27;19977;-40
2024/01/19 15:30:25;;;;;;;;;;;;;;;;;;5136209;27;19976;-40
2024/01/19 15:32:58;;;;;;;;;;;;;;;;;;5135946;27;20371;-39
2024/01/19 15:35:24;;;;;;;;;;;;;;;;;;5136073;27;19923;-41
2024/01/19 15:37:51;;;;;;;;;;;;;;;;;;5136178;27;19928;-40
2024/01/19 15:40:17;;;;;;;;;;;;;;;;;;5136041;27;20363;-41
2024/01/19 15:42:43;;;;;;;;;;;;;;;;;;5135956;27;19924;-39
2024/01/19 15:45:09;;;;;;;;;;;;;;;;;;5135859;27;19927;-41
2024/01/19 15:47:37;;;;;;;;;;;;;;;;;;5135412;27;19959;-41
2024/01/19 15:50:04;;;;;;;;;;;;;;;;;;5135672;27;19930;-41
2024/01/19 15:52:31;;;;;;;;;;;;;;;;;;5135716;27;19923;-41
2024/01/19 15:54:57;;;;;;;;;;;;;;;;;;5135688;27;19927;-40
2024/01/19 15:57:23;;;;;;;;;;;;;;;;;;5135709;27;19972;-41
2024/01/19 15:59:50;;;;;;;;;;;;;;;;;;5135653;27;19923;-40
2024/01/19 16:02:16;;;;;;;;;;;;;;;;;;5135758;27;19988;-41
2024/01/19 16:04:42;;;;;;;;;;;;;;;;;;5135694;27;19973;-42
2024/01/19 16:07:08;;;;;;;;;;;;;;;;;;5135497;27;19924;-41
2024/01/19 16:09:35;;;;;;;;;;;;;;;;;;5135249;27;19976;-41
2024/01/19 16:12:01;;;;;;;;;;;;;;;;;;5135373;27;19927;-42
2024/01/19 16:14:27;;;;;;;;;;;;;;;;;;5135244;27;19962;-40
2024/01/19 16:16:53;;;;;;;;;;;;;;;;;;5135117;27;19923;-40
2024/01/19 16:19:19;;;;;;;;;;;;;;;;;;5135230;27;19931;-41
2024/01/19 16:21:46;;;;;;;;;;;;;;;;;;5135379;27;19924;-39
2024/01/19 16:24:16;;;;;;;;;;;;;;;;;;5135015;27;19981;-40
2024/01/19 16:26:44;;;;;;;;;;;;;;;;;;5135139;27;19937;-40
2024/01/19 16:29:10;;;;;;;;;;;;;;;;;;5135102;27;19928;-40
2024/01/19 16:31:36;;;;;;;;;;;;;;;;;;5135147;27;19924;-40
2024/01/19 16:34:03;;;;;;;;;;;;;;;;;;5134529;27;19975;-39
2024/01/19 16:36:31;;;;;;;;;;;;;;;;;;5134980;27;19930;-40
2024/01/19 16:38:58;;;;;;;;;;;;;;;;;;5134807;27;20426;-40